createdAt,value
2018-05-11T00:00:10.179Z,930.7
2018-05-11T00:00:22.703Z,930.68
2018-05-11T00:00:35.712Z,930.71
2018-05-11T00:00:48.766Z,930.74
2018-05-11T00:01:01.281Z,930.7
2018-05-11T00:01:12.885Z,930.7
2018-05-11T00:01:25.381Z,930.71
2018-05-11T00:01:38.347Z,930.74
2018-05-11T00:01:50.900Z,930.74
2018-05-11T00:02:03.894Z,930.74
2018-05-11T00:02:16.879Z,930.76
2018-05-11T00:02:29.890Z,930.74
2018-05-11T00:02:42.858Z,930.73
2018-05-11T00:02:55.861Z,930.77
2018-05-11T00:03:08.362Z,930.71
2018-05-11T00:03:20.858Z,930.78
2018-05-11T00:03:33.831Z,930.78
2018-05-11T00:03:46.954Z,930.77
2018-05-11T00:03:59.492Z,930.76
2018-05-11T00:04:13.123Z,930.75
2018-05-11T00:04:26.145Z,930.83
2018-05-11T00:04:39.137Z,930.84
2018-05-11T00:04:52.095Z,930.84
2018-05-11T00:05:05.081Z,930.82
2018-05-11T00:05:17.561Z,930.81
2018-05-11T00:05:30.121Z,930.81
2018-05-11T00:05:43.095Z,930.84
2018-05-11T00:05:55.553Z,930.84
2018-05-11T00:06:08.527Z,930.82
2018-05-11T00:06:20.532Z,930.83
2018-05-11T00:06:33.464Z,930.85
2018-05-11T00:06:45.993Z,930.82
2018-05-11T00:06:58.477Z,930.77
2018-05-11T00:07:10.978Z,930.78
2018-05-11T00:07:23.499Z,930.79
2018-05-11T00:07:35.954Z,930.76
2018-05-11T00:07:48.477Z,930.75
2018-05-11T00:08:01.480Z,930.77
2018-05-11T00:08:13.509Z,930.78
2018-05-11T00:08:26.549Z,930.8
2018-05-11T00:08:39.046Z,930.76
2018-05-11T00:08:51.512Z,930.76
2018-05-11T00:09:04.499Z,930.77
2018-05-11T00:09:17.060Z,930.75
2018-05-11T00:09:29.525Z,930.76
2018-05-11T00:09:42.028Z,930.75
2018-05-11T00:09:55.044Z,930.79
2018-05-11T00:10:07.545Z,930.76
2018-05-11T00:10:20.518Z,930.76
2018-05-11T00:10:33.016Z,930.77
2018-05-11T00:10:45.520Z,930.75
2018-05-11T00:10:58.478Z,930.75
2018-05-11T00:11:11.427Z,930.77
2018-05-11T00:11:23.961Z,930.73
2018-05-11T00:11:36.480Z,930.75
2018-05-11T00:11:48.975Z,930.72
2018-05-11T00:12:01.935Z,930.77
2018-05-11T00:12:14.977Z,930.74
2018-05-11T00:12:27.911Z,930.76
2018-05-11T00:12:40.858Z,930.73
2018-05-11T00:12:53.373Z,930.75
2018-05-11T00:13:05.420Z,930.72
2018-05-11T00:13:18.472Z,930.7
2018-05-11T00:13:30.926Z,930.72
2018-05-11T00:13:43.420Z,930.74
2018-05-11T00:13:55.868Z,930.71
2018-05-11T00:14:08.413Z,930.72
2018-05-11T00:14:20.950Z,930.72
2018-05-11T00:14:32.988Z,930.68
2018-05-11T00:14:44.979Z,930.72
2018-05-11T00:14:57.454Z,930.7
2018-05-11T00:15:09.515Z,930.69
2018-05-11T00:15:22.477Z,930.7
2018-05-11T00:15:35.443Z,930.72
2018-05-11T00:15:47.980Z,930.73
2018-05-11T00:16:01.024Z,930.7
2018-05-11T00:16:13.963Z,930.71
2018-05-11T00:16:25.978Z,930.75
2018-05-11T00:16:38.967Z,930.73
2018-05-11T00:16:51.994Z,930.7
2018-05-11T00:17:04.995Z,930.75
2018-05-11T00:17:17.600Z,930.71
2018-05-11T00:17:30.093Z,930.74
2018-05-11T00:17:42.719Z,930.73
2018-05-11T00:17:55.655Z,930.75
2018-05-11T00:18:08.134Z,930.74
2018-05-11T00:18:20.651Z,930.72
2018-05-11T00:18:33.576Z,930.77
2018-05-11T00:18:46.099Z,930.76
2018-05-11T00:18:59.130Z,930.74
2018-05-11T00:19:11.959Z,930.73
2018-05-11T00:19:24.948Z,930.73
2018-05-11T00:19:37.929Z,930.72
2018-05-11T00:19:50.405Z,930.72
2018-05-11T00:20:03.363Z,930.73
2018-05-11T00:20:16.358Z,930.71
2018-05-11T00:20:29.285Z,930.73
2018-05-11T00:20:42.242Z,930.71
2018-05-11T00:20:54.749Z,930.73
2018-05-11T00:21:07.309Z,930.74
2018-05-11T00:21:20.375Z,930.74
2018-05-11T00:21:33.303Z,930.73
2018-05-11T00:21:45.286Z,930.73
2018-05-11T00:21:57.740Z,930.72
2018-05-11T00:22:10.278Z,930.7
2018-05-11T00:22:23.193Z,930.7
2018-05-11T00:22:36.161Z,930.75
2018-05-11T00:22:48.684Z,930.7
2018-05-11T00:23:01.225Z,930.72
2018-05-11T00:23:13.690Z,930.74
2018-05-11T00:23:26.934Z,930.7
2018-05-11T00:23:40.291Z,930.74
2018-05-11T00:23:52.805Z,930.71
2018-05-11T00:24:05.267Z,930.69
2018-05-11T00:24:17.816Z,930.71
2018-05-11T00:24:30.290Z,930.74
2018-05-11T00:24:42.782Z,930.7
2018-05-11T00:24:55.812Z,930.71
2018-05-11T00:25:08.834Z,930.7
2018-05-11T00:25:20.856Z,930.7
2018-05-11T00:25:33.395Z,930.7
2018-05-11T00:25:45.905Z,930.7
2018-05-11T00:25:58.878Z,930.68
2018-05-11T00:26:11.363Z,930.67
2018-05-11T00:26:23.917Z,930.68
2018-05-11T00:26:36.910Z,930.68
2018-05-11T00:26:48.975Z,930.69
2018-05-11T00:27:01.412Z,930.67
2018-05-11T00:27:13.917Z,930.69
2018-05-11T00:27:25.937Z,930.71
2018-05-11T00:27:38.456Z,930.67
2018-05-11T00:27:51.517Z,930.67
2018-05-11T00:28:03.114Z,930.71
2018-05-11T00:28:15.168Z,930.67
2018-05-11T00:28:28.148Z,930.69
2018-05-11T00:28:41.144Z,930.68
2018-05-11T00:28:53.211Z,930.69
2018-05-11T00:29:05.700Z,930.68
2018-05-11T00:29:19.004Z,930.67
2018-05-11T00:29:32.005Z,930.66
2018-05-11T00:29:44.514Z,930.7
2018-05-11T00:29:57.005Z,930.72
2018-05-11T00:30:08.566Z,930.71
2018-05-11T00:30:20.625Z,930.7
2018-05-11T00:30:33.069Z,930.73
2018-05-11T00:30:45.552Z,930.71
2018-05-11T00:30:58.575Z,930.71
2018-05-11T00:31:11.520Z,930.7
2018-05-11T00:31:24.568Z,930.71
2018-05-11T00:31:37.487Z,930.71
2018-05-11T00:31:50.029Z,930.75
2018-05-11T00:32:03.021Z,930.72
2018-05-11T00:32:16.013Z,930.72
2018-05-11T00:32:28.514Z,930.74
2018-05-11T00:32:40.565Z,930.73
2018-05-11T00:32:53.488Z,930.73
2018-05-11T00:33:06.440Z,930.73
2018-05-11T00:33:19.409Z,930.74
2018-05-11T00:33:31.027Z,930.71
2018-05-11T00:33:43.954Z,930.73
2018-05-11T00:33:56.930Z,930.72
2018-05-11T00:34:08.526Z,930.72
2018-05-11T00:34:22.228Z,930.72
2018-05-11T00:34:34.675Z,930.72
2018-05-11T00:34:46.744Z,930.69
2018-05-11T00:34:59.724Z,930.71
2018-05-11T00:35:12.220Z,930.72
2018-05-11T00:35:24.695Z,930.72
2018-05-11T00:35:37.607Z,930.73
2018-05-11T00:35:50.054Z,930.71
2018-05-11T00:36:02.572Z,930.7
2018-05-11T00:36:15.099Z,930.71
2018-05-11T00:36:28.039Z,930.73
2018-05-11T00:36:40.523Z,930.72
2018-05-11T00:36:53.530Z,930.74
2018-05-11T00:37:06.495Z,930.77
2018-05-11T00:37:19.038Z,930.76
2018-05-11T00:37:32.070Z,930.76
2018-05-11T00:37:45.054Z,930.74
2018-05-11T00:37:57.596Z,930.76
2018-05-11T00:38:10.135Z,930.71
2018-05-11T00:38:23.129Z,930.75
2018-05-11T00:38:36.032Z,930.74
2018-05-11T00:38:48.998Z,930.78
2018-05-11T00:39:01.970Z,930.77
2018-05-11T00:39:14.475Z,930.77
2018-05-11T00:39:27.000Z,930.76
2018-05-11T00:39:39.498Z,930.77
2018-05-11T00:39:52.461Z,930.76
2018-05-11T00:40:05.581Z,930.8
2018-05-11T00:40:17.160Z,930.82
2018-05-11T00:40:30.138Z,930.78
2018-05-11T00:40:43.054Z,930.76
2018-05-11T00:40:56.018Z,930.77
2018-05-11T00:41:08.485Z,930.81
2018-05-11T00:41:21.039Z,930.82
2018-05-11T00:41:34.041Z,930.79
2018-05-11T00:41:46.546Z,930.78
2018-05-11T00:41:59.018Z,930.77
2018-05-11T00:42:11.092Z,930.78
2018-05-11T00:42:24.049Z,930.82
2018-05-11T00:42:36.564Z,930.79
2018-05-11T00:42:49.530Z,930.84
2018-05-11T00:43:02.568Z,930.81
2018-05-11T00:43:15.083Z,930.8
2018-05-11T00:43:28.054Z,930.82
2018-05-11T00:43:40.975Z,930.8
2018-05-11T00:43:54.046Z,930.83
2018-05-11T00:44:06.482Z,930.83
2018-05-11T00:44:18.988Z,930.85
2018-05-11T00:44:31.555Z,930.81
2018-05-11T00:44:44.018Z,930.82
2018-05-11T00:44:56.960Z,930.82
2018-05-11T00:45:09.453Z,930.83
2018-05-11T00:45:22.397Z,930.83
2018-05-11T00:45:34.887Z,930.85
2018-05-11T00:45:47.812Z,930.83
2018-05-11T00:46:00.283Z,930.81
2018-05-11T00:46:12.340Z,930.81
2018-05-11T00:46:24.895Z,930.8
2018-05-11T00:46:37.419Z,930.82
2018-05-11T00:46:50.409Z,930.83
2018-05-11T00:47:02.473Z,930.8
2018-05-11T00:47:14.519Z,930.81
2018-05-11T00:47:27.051Z,930.8
2018-05-11T00:47:40.069Z,930.82
2018-05-11T00:47:52.581Z,930.83
2018-05-11T00:48:05.070Z,930.85
2018-05-11T00:48:17.563Z,930.85
2018-05-11T00:48:30.059Z,930.83
2018-05-11T00:48:42.063Z,930.82
2018-05-11T00:48:54.093Z,930.83
2018-05-11T00:49:06.557Z,930.82
2018-05-11T00:49:19.768Z,930.85
2018-05-11T00:49:32.359Z,930.81
2018-05-11T00:49:44.872Z,930.82
2018-05-11T00:49:57.397Z,930.82
2018-05-11T00:50:09.857Z,930.77
2018-05-11T00:50:22.371Z,930.8
2018-05-11T00:50:34.871Z,930.81
2018-05-11T00:50:47.371Z,930.82
2018-05-11T00:51:00.616Z,930.82
2018-05-11T00:51:13.850Z,930.82
2018-05-11T00:51:26.832Z,930.81
2018-05-11T00:51:39.406Z,930.81
2018-05-11T00:51:51.889Z,930.79
2018-05-11T00:52:04.366Z,930.82
2018-05-11T00:52:16.887Z,930.8
2018-05-11T00:52:29.852Z,930.8
2018-05-11T00:52:42.837Z,930.82
2018-05-11T00:52:55.838Z,930.8
2018-05-11T00:53:07.922Z,930.81
2018-05-11T00:53:20.885Z,930.83
2018-05-11T00:53:32.898Z,930.8
2018-05-11T00:53:45.881Z,930.83
2018-05-11T00:53:58.917Z,930.86
2018-05-11T00:54:11.835Z,930.86
2018-05-11T00:54:24.846Z,930.83
2018-05-11T00:54:37.814Z,930.82
2018-05-11T00:54:50.838Z,930.84
2018-05-11T00:55:03.370Z,930.83
2018-05-11T00:55:15.882Z,930.84
2018-05-11T00:55:28.876Z,930.81
2018-05-11T00:55:41.479Z,930.83
2018-05-11T00:55:54.052Z,930.82
2018-05-11T00:56:07.039Z,930.85
2018-05-11T00:56:20.040Z,930.82
2018-05-11T00:56:33.016Z,930.84
2018-05-11T00:56:45.476Z,930.82
2018-05-11T00:56:58.444Z,930.83
2018-05-11T00:57:10.908Z,930.83
2018-05-11T00:57:23.882Z,930.81
2018-05-11T00:57:36.869Z,930.85
2018-05-11T00:57:49.860Z,930.8
2018-05-11T00:58:02.389Z,930.85
2018-05-11T00:58:15.002Z,930.81
2018-05-11T00:58:27.480Z,930.83
2018-05-11T00:58:39.982Z,930.81
2018-05-11T00:58:52.972Z,930.85
2018-05-11T00:59:04.995Z,930.87
2018-05-11T00:59:17.589Z,930.83
2018-05-11T00:59:29.830Z,930.85
2018-05-11T00:59:42.822Z,930.81
2018-05-11T00:59:55.799Z,930.82
2018-05-11T01:00:07.858Z,930.84
2018-05-11T01:00:20.420Z,930.81
2018-05-11T01:00:33.378Z,930.89
2018-05-11T01:00:46.343Z,930.84
2018-05-11T01:00:58.874Z,930.87
2018-05-11T01:01:10.926Z,930.84
2018-05-11T01:01:23.935Z,930.86
2018-05-11T01:01:36.460Z,930.87
2018-05-11T01:01:48.025Z,930.86
2018-05-11T01:02:00.492Z,930.89
2018-05-11T01:02:12.985Z,930.86
2018-05-11T01:02:25.992Z,930.84
2018-05-11T01:02:38.037Z,930.84
2018-05-11T01:02:50.616Z,930.85
2018-05-11T01:03:02.686Z,930.83
2018-05-11T01:03:15.593Z,930.81
2018-05-11T01:03:28.139Z,930.85
2018-05-11T01:03:40.665Z,930.83
2018-05-11T01:03:53.168Z,930.83
2018-05-11T01:04:05.717Z,930.84
2018-05-11T01:04:18.764Z,930.86
2018-05-11T01:04:32.491Z,930.87
2018-05-11T01:04:45.480Z,930.85
2018-05-11T01:04:57.951Z,930.83
2018-05-11T01:05:10.448Z,930.84
2018-05-11T01:05:23.369Z,930.84
2018-05-11T01:05:36.310Z,930.83
2018-05-11T01:05:48.370Z,930.86
2018-05-11T01:06:00.910Z,930.86
2018-05-11T01:06:13.435Z,930.84
2018-05-11T01:06:25.997Z,930.86
2018-05-11T01:06:38.023Z,930.84
2018-05-11T01:06:50.989Z,930.84
2018-05-11T01:07:03.485Z,930.82
2018-05-11T01:07:16.429Z,930.84
2018-05-11T01:07:29.372Z,930.84
2018-05-11T01:07:42.294Z,930.77
2018-05-11T01:07:55.233Z,930.82
2018-05-11T01:08:07.226Z,930.84
2018-05-11T01:08:20.213Z,930.83
2018-05-11T01:08:32.307Z,930.79
2018-05-11T01:08:45.302Z,930.8
2018-05-11T01:08:57.782Z,930.82
2018-05-11T01:09:10.296Z,930.8
2018-05-11T01:09:22.766Z,930.81
2018-05-11T01:09:35.329Z,930.82
2018-05-11T01:09:47.410Z,930.83
2018-05-11T01:09:59.924Z,930.86
2018-05-11T01:10:11.503Z,930.81
2018-05-11T01:10:24.000Z,930.82
2018-05-11T01:10:35.619Z,930.84
2018-05-11T01:10:46.741Z,930.86
2018-05-11T01:10:59.718Z,930.87
2018-05-11T01:11:11.768Z,930.82
2018-05-11T01:11:24.752Z,930.85
2018-05-11T01:11:36.855Z,930.86
2018-05-11T01:11:49.818Z,930.88
2018-05-11T01:12:02.401Z,930.87
2018-05-11T01:12:14.444Z,930.88
2018-05-11T01:12:26.919Z,930.86
2018-05-11T01:12:39.375Z,930.86
2018-05-11T01:12:51.904Z,930.89
2018-05-11T01:13:04.834Z,930.87
2018-05-11T01:13:17.344Z,930.87
2018-05-11T01:13:30.331Z,930.86
2018-05-11T01:13:43.296Z,930.86
2018-05-11T01:13:55.338Z,930.85
2018-05-11T01:14:06.996Z,930.84
2018-05-11T01:14:19.084Z,930.88
2018-05-11T01:14:32.022Z,930.85
2018-05-11T01:14:44.558Z,930.85
2018-05-11T01:14:57.080Z,930.85
2018-05-11T01:15:10.066Z,930.84
2018-05-11T01:15:22.539Z,930.86
2018-05-11T01:15:35.526Z,930.87
2018-05-11T01:15:48.048Z,930.85
2018-05-11T01:16:01.057Z,930.85
2018-05-11T01:16:14.039Z,930.84
2018-05-11T01:16:27.039Z,930.84
2018-05-11T01:16:40.014Z,930.85
2018-05-11T01:16:52.120Z,930.88
2018-05-11T01:17:04.364Z,930.85
2018-05-11T01:17:16.365Z,930.85
2018-05-11T01:17:29.332Z,930.88
2018-05-11T01:17:41.344Z,930.9
2018-05-11T01:17:54.309Z,930.86
2018-05-11T01:18:07.268Z,930.91
2018-05-11T01:18:20.274Z,930.89
2018-05-11T01:18:33.247Z,930.89
2018-05-11T01:18:46.196Z,930.89
2018-05-11T01:18:58.811Z,930.89
2018-05-11T01:19:10.811Z,930.89
2018-05-11T01:19:23.252Z,930.89
2018-05-11T01:19:36.112Z,930.89
2018-05-11T01:19:48.600Z,930.9
2018-05-11T01:20:01.573Z,930.93
2018-05-11T01:20:14.049Z,930.89
2018-05-11T01:20:26.522Z,930.9
2018-05-11T01:20:39.499Z,930.93
2018-05-11T01:20:52.452Z,930.9
2018-05-11T01:21:04.964Z,930.89
2018-05-11T01:21:17.407Z,930.94
2018-05-11T01:21:30.363Z,930.91
2018-05-11T01:21:42.834Z,930.91
2018-05-11T01:21:54.871Z,930.93
2018-05-11T01:22:07.806Z,930.94
2018-05-11T01:22:19.851Z,930.94
2018-05-11T01:22:32.383Z,930.91
2018-05-11T01:22:45.342Z,930.94
2018-05-11T01:22:58.276Z,930.95
2018-05-11T01:23:11.224Z,930.97
2018-05-11T01:23:24.203Z,930.97
2018-05-11T01:23:36.684Z,930.95
2018-05-11T01:23:49.202Z,930.97
2018-05-11T01:24:02.183Z,930.92
2018-05-11T01:24:15.134Z,930.93
2018-05-11T01:24:27.216Z,930.96
2018-05-11T01:24:39.242Z,930.94
2018-05-11T01:24:52.199Z,930.92
2018-05-11T01:25:05.152Z,930.93
2018-05-11T01:25:17.622Z,930.94
2018-05-11T01:25:30.592Z,930.93
2018-05-11T01:25:43.122Z,930.95
2018-05-11T01:25:55.132Z,930.94
2018-05-11T01:26:07.616Z,930.93
2018-05-11T01:26:20.511Z,930.92
2018-05-11T01:26:33.467Z,930.91
2018-05-11T01:26:46.433Z,930.91
2018-05-11T01:26:58.523Z,930.91
2018-05-11T01:27:11.469Z,930.95
2018-05-11T01:27:24.011Z,930.93
2018-05-11T01:27:36.499Z,930.95
2018-05-11T01:27:49.462Z,930.93
2018-05-11T01:28:01.527Z,930.92
2018-05-11T01:28:14.093Z,930.93
2018-05-11T01:28:27.105Z,930.95
2018-05-11T01:28:40.069Z,930.9
2018-05-11T01:28:53.024Z,930.93
2018-05-11T01:29:05.536Z,930.93
2018-05-11T01:29:18.060Z,930.95
2018-05-11T01:29:31.059Z,930.92
2018-05-11T01:29:43.763Z,930.96
2018-05-11T01:29:56.755Z,930.93
2018-05-11T01:30:08.742Z,930.95
2018-05-11T01:30:21.731Z,930.91
2018-05-11T01:30:34.236Z,930.93
2018-05-11T01:30:46.335Z,930.91
2018-05-11T01:30:58.869Z,930.95
2018-05-11T01:31:11.406Z,930.92
2018-05-11T01:31:24.447Z,930.95
2018-05-11T01:31:37.438Z,930.92
2018-05-11T01:31:50.360Z,930.93
2018-05-11T01:32:03.383Z,930.93
2018-05-11T01:32:15.394Z,930.96
2018-05-11T01:32:28.402Z,930.93
2018-05-11T01:32:41.432Z,930.93
2018-05-11T01:32:53.986Z,930.94
2018-05-11T01:33:06.996Z,930.94
2018-05-11T01:33:18.555Z,930.9
2018-05-11T01:33:31.560Z,930.89
2018-05-11T01:33:44.534Z,930.9
2018-05-11T01:33:57.064Z,930.95
2018-05-11T01:34:09.587Z,930.94
2018-05-11T01:34:22.603Z,930.93
2018-05-11T01:34:35.118Z,930.92
2018-05-11T01:34:48.704Z,930.92
2018-05-11T01:35:01.228Z,930.87
2018-05-11T01:35:13.773Z,930.96
2018-05-11T01:35:26.274Z,930.92
2018-05-11T01:35:38.777Z,930.95
2018-05-11T01:35:51.268Z,930.95
2018-05-11T01:36:04.193Z,930.92
2018-05-11T01:36:16.757Z,930.98
2018-05-11T01:36:28.801Z,930.97
2018-05-11T01:36:41.698Z,930.96
2018-05-11T01:36:54.688Z,930.97
2018-05-11T01:37:07.207Z,930.93
2018-05-11T01:37:19.244Z,930.96
2018-05-11T01:37:32.180Z,930.95
2018-05-11T01:37:45.146Z,930.97
2018-05-11T01:37:57.624Z,930.98
2018-05-11T01:38:10.124Z,930.93
2018-05-11T01:38:22.609Z,930.97
2018-05-11T01:38:34.600Z,930.97
2018-05-11T01:38:47.574Z,930.97
2018-05-11T01:39:00.530Z,930.97
2018-05-11T01:39:13.065Z,930.94
2018-05-11T01:39:25.116Z,930.97
2018-05-11T01:39:38.087Z,930.97
2018-05-11T01:39:49.854Z,930.97
2018-05-11T01:40:02.013Z,930.96
2018-05-11T01:40:14.978Z,930.96
2018-05-11T01:40:26.543Z,930.96
2018-05-11T01:40:39.512Z,930.95
2018-05-11T01:40:52.007Z,930.95
2018-05-11T01:41:04.984Z,930.95
2018-05-11T01:41:17.942Z,931
2018-05-11T01:41:30.426Z,930.99
2018-05-11T01:41:43.385Z,930.97
2018-05-11T01:41:55.892Z,930.97
2018-05-11T01:42:08.396Z,930.98
2018-05-11T01:42:20.936Z,930.94
2018-05-11T01:42:33.424Z,930.97
2018-05-11T01:42:46.426Z,930.98
2018-05-11T01:42:58.495Z,930.97
2018-05-11T01:43:11.419Z,930.97
2018-05-11T01:43:23.930Z,930.96
2018-05-11T01:43:36.417Z,930.98
2018-05-11T01:43:48.936Z,930.99
2018-05-11T01:44:01.421Z,930.95
2018-05-11T01:44:14.370Z,930.99
2018-05-11T01:44:27.307Z,930.99
2018-05-11T01:44:39.821Z,930.98
2018-05-11T01:44:52.793Z,930.97
2018-05-11T01:45:05.358Z,930.96
2018-05-11T01:45:17.929Z,930.98
2018-05-11T01:45:30.898Z,930.97
2018-05-11T01:45:43.835Z,930.96
2018-05-11T01:45:56.350Z,930.97
2018-05-11T01:46:08.837Z,930.95
2018-05-11T01:46:20.403Z,930.95
2018-05-11T01:46:33.426Z,930.98
2018-05-11T01:46:45.474Z,931
2018-05-11T01:46:57.951Z,930.97
2018-05-11T01:47:10.945Z,930.95
2018-05-11T01:47:23.471Z,930.98
2018-05-11T01:47:36.001Z,930.99
2018-05-11T01:47:48.955Z,931
2018-05-11T01:48:01.981Z,930.99
2018-05-11T01:48:14.483Z,930.97
2018-05-11T01:48:26.568Z,930.96
2018-05-11T01:48:39.526Z,930.97
2018-05-11T01:48:52.743Z,930.96
2018-05-11T01:49:04.330Z,930.97
2018-05-11T01:49:17.345Z,930.97
2018-05-11T01:49:29.935Z,930.95
2018-05-11T01:49:42.912Z,930.96
2018-05-11T01:49:56.206Z,930.97
2018-05-11T01:50:08.721Z,930.95
2018-05-11T01:50:21.731Z,930.96
2018-05-11T01:50:34.261Z,930.97
2018-05-11T01:50:46.315Z,930.98
2018-05-11T01:50:59.307Z,930.99
2018-05-11T01:51:11.337Z,930.97
2018-05-11T01:51:23.349Z,930.97
2018-05-11T01:51:36.299Z,930.96
2018-05-11T01:51:48.820Z,930.97
2018-05-11T01:52:01.351Z,931
2018-05-11T01:52:13.817Z,930.98
2018-05-11T01:52:26.348Z,930.95
2018-05-11T01:52:38.869Z,930.95
2018-05-11T01:52:50.944Z,930.93
2018-05-11T01:53:03.043Z,930.94
2018-05-11T01:53:15.562Z,930.91
2018-05-11T01:53:28.572Z,930.93
2018-05-11T01:53:41.629Z,930.96
2018-05-11T01:53:53.664Z,930.94
2018-05-11T01:54:06.652Z,930.93
2018-05-11T01:54:19.197Z,930.91
2018-05-11T01:54:30.816Z,930.94
2018-05-11T01:54:43.287Z,930.93
2018-05-11T01:54:56.423Z,930.93
2018-05-11T01:55:08.985Z,930.94
2018-05-11T01:55:21.513Z,930.95
2018-05-11T01:55:34.112Z,930.9
2018-05-11T01:55:46.622Z,930.91
2018-05-11T01:55:59.593Z,930.92
2018-05-11T01:56:11.650Z,930.91
2018-05-11T01:56:24.149Z,930.92
2018-05-11T01:56:37.103Z,930.92
2018-05-11T01:56:50.085Z,930.92
2018-05-11T01:57:02.579Z,930.89
2018-05-11T01:57:15.082Z,930.9
2018-05-11T01:57:28.101Z,930.89
2018-05-11T01:57:41.115Z,930.9
2018-05-11T01:57:54.101Z,930.92
2018-05-11T01:58:06.615Z,930.9
2018-05-11T01:58:19.148Z,930.9
2018-05-11T01:58:31.710Z,930.86
2018-05-11T01:58:44.171Z,930.9
2018-05-11T01:58:57.154Z,930.94
2018-05-11T01:59:09.732Z,930.92
2018-05-11T01:59:22.775Z,930.9
2018-05-11T01:59:35.814Z,930.9
2018-05-11T01:59:48.778Z,930.88
2018-05-11T02:00:01.456Z,930.89
2018-05-11T02:00:13.497Z,930.87
2018-05-11T02:00:26.471Z,930.91
2018-05-11T02:00:39.437Z,930.9
2018-05-11T02:00:51.450Z,930.88
2018-05-11T02:01:04.019Z,930.89
2018-05-11T02:01:16.518Z,930.9
2018-05-11T02:01:29.547Z,930.89
2018-05-11T02:01:41.161Z,930.87
2018-05-11T02:01:53.159Z,930.86
2018-05-11T02:02:05.697Z,930.88
2018-05-11T02:02:18.314Z,930.87
2018-05-11T02:02:31.372Z,930.87
2018-05-11T02:02:44.467Z,930.91
2018-05-11T02:02:56.956Z,930.88
2018-05-11T02:03:09.003Z,930.9
2018-05-11T02:03:21.977Z,930.87
2018-05-11T02:03:34.893Z,930.87
2018-05-11T02:03:47.453Z,930.87
2018-05-11T02:03:59.902Z,930.88
2018-05-11T02:04:12.396Z,930.86
2018-05-11T02:04:24.507Z,930.86
2018-05-11T02:04:36.561Z,930.86
2018-05-11T02:04:49.592Z,930.9
2018-05-11T02:05:03.259Z,930.86
2018-05-11T02:05:15.789Z,930.9
2018-05-11T02:05:28.427Z,930.89
2018-05-11T02:05:40.917Z,930.87
2018-05-11T02:05:53.864Z,930.88
2018-05-11T02:06:05.894Z,930.86
2018-05-11T02:06:17.949Z,930.86
2018-05-11T02:06:30.880Z,930.87
2018-05-11T02:06:42.953Z,930.9
2018-05-11T02:06:55.492Z,930.85
2018-05-11T02:07:07.992Z,930.89
2018-05-11T02:07:20.918Z,930.87
2018-05-11T02:07:33.421Z,930.89
2018-05-11T02:07:46.372Z,930.91
2018-05-11T02:07:59.357Z,930.89
2018-05-11T02:08:11.824Z,930.91
2018-05-11T02:08:24.759Z,930.88
2018-05-11T02:08:37.250Z,930.92
2018-05-11T02:08:49.760Z,930.88
2018-05-11T02:09:02.261Z,930.89
2018-05-11T02:09:14.832Z,930.94
2018-05-11T02:09:27.850Z,930.89
2018-05-11T02:09:40.778Z,930.91
2018-05-11T02:09:53.312Z,930.87
2018-05-11T02:10:05.811Z,930.9
2018-05-11T02:10:18.334Z,930.89
2018-05-11T02:10:31.270Z,930.9
2018-05-11T02:10:43.776Z,930.89
2018-05-11T02:10:56.421Z,930.9
2018-05-11T02:11:09.077Z,930.91
2018-05-11T02:11:21.989Z,930.91
2018-05-11T02:11:34.952Z,930.91
2018-05-11T02:11:47.961Z,930.87
2018-05-11T02:12:00.488Z,930.91
2018-05-11T02:12:12.967Z,930.88
2018-05-11T02:12:25.487Z,930.89
2018-05-11T02:12:37.987Z,930.89
2018-05-11T02:12:50.485Z,930.87
2018-05-11T02:13:02.528Z,930.85
2018-05-11T02:13:15.022Z,930.83
2018-05-11T02:13:27.957Z,930.86
2018-05-11T02:13:40.446Z,930.85
2018-05-11T02:13:52.453Z,930.87
2018-05-11T02:14:05.022Z,930.87
2018-05-11T02:14:17.584Z,930.86
2018-05-11T02:14:30.098Z,930.85
2018-05-11T02:14:42.599Z,930.88
2018-05-11T02:14:55.075Z,930.89
2018-05-11T02:15:07.609Z,930.86
2018-05-11T02:15:20.600Z,930.9
2018-05-11T02:15:33.149Z,930.9
2018-05-11T02:15:46.168Z,930.88
2018-05-11T02:15:58.664Z,930.91
2018-05-11T02:16:11.197Z,930.9
2018-05-11T02:16:23.223Z,930.87
2018-05-11T02:16:36.185Z,930.86
2018-05-11T02:16:49.220Z,930.9
2018-05-11T02:17:01.274Z,930.9
2018-05-11T02:17:13.834Z,930.86
2018-05-11T02:17:26.725Z,930.9
2018-05-11T02:17:39.631Z,930.87
2018-05-11T02:17:52.163Z,930.89
2018-05-11T02:18:04.225Z,930.88
2018-05-11T02:18:17.163Z,930.89
2018-05-11T02:18:29.314Z,930.9
2018-05-11T02:18:42.650Z,930.9
2018-05-11T02:18:55.183Z,930.88
2018-05-11T02:19:08.109Z,930.89
2018-05-11T02:19:20.628Z,930.88
2018-05-11T02:19:33.572Z,930.89
2018-05-11T02:19:46.541Z,930.89
2018-05-11T02:19:59.625Z,930.86
2018-05-11T02:20:12.612Z,930.89
2018-05-11T02:20:25.612Z,930.9
2018-05-11T02:20:38.611Z,930.86
2018-05-11T02:20:51.179Z,930.89
2018-05-11T02:21:03.729Z,930.88
2018-05-11T02:21:16.216Z,930.85
2018-05-11T02:21:28.744Z,930.88
2018-05-11T02:21:41.755Z,930.89
2018-05-11T02:21:54.219Z,930.87
2018-05-11T02:22:06.730Z,930.89
2018-05-11T02:22:19.673Z,930.88
2018-05-11T02:22:32.667Z,930.87
2018-05-11T02:22:45.616Z,930.89
2018-05-11T02:22:58.586Z,930.9
2018-05-11T02:23:11.083Z,930.89
2018-05-11T02:23:24.000Z,930.86
2018-05-11T02:23:36.910Z,930.88
2018-05-11T02:23:49.389Z,930.89
2018-05-11T02:24:01.913Z,930.87
2018-05-11T02:24:13.961Z,930.87
2018-05-11T02:24:26.891Z,930.88
2018-05-11T02:24:39.844Z,930.81
2018-05-11T02:24:52.753Z,930.83
2018-05-11T02:25:05.305Z,930.87
2018-05-11T02:25:17.349Z,930.85
2018-05-11T02:25:30.368Z,930.83
2018-05-11T02:25:42.879Z,930.84
2018-05-11T02:25:55.004Z,930.85
2018-05-11T02:26:07.872Z,930.86
2018-05-11T02:26:20.390Z,930.82
2018-05-11T02:26:33.339Z,930.86
2018-05-11T02:26:46.318Z,930.82
2018-05-11T02:26:58.883Z,930.86
2018-05-11T02:27:11.366Z,930.84
2018-05-11T02:27:23.850Z,930.85
2018-05-11T02:27:36.818Z,930.83
2018-05-11T02:27:49.836Z,930.83
2018-05-11T02:28:02.317Z,930.83
2018-05-11T02:28:14.799Z,930.82
2018-05-11T02:28:26.877Z,930.8
2018-05-11T02:28:38.944Z,930.83
2018-05-11T02:28:51.928Z,930.82
2018-05-11T02:29:04.927Z,930.87
2018-05-11T02:29:17.887Z,930.85
2018-05-11T02:29:30.386Z,930.86
2018-05-11T02:29:42.916Z,930.86
2018-05-11T02:29:55.914Z,930.88
2018-05-11T02:30:08.264Z,930.85
2018-05-11T02:30:20.759Z,930.86
2018-05-11T02:30:33.263Z,930.85
2018-05-11T02:30:45.744Z,930.88
2018-05-11T02:30:58.258Z,930.86
2018-05-11T02:31:10.754Z,930.86
2018-05-11T02:31:23.707Z,930.88
2018-05-11T02:31:36.199Z,930.85
2018-05-11T02:31:49.118Z,930.87
2018-05-11T02:32:01.639Z,930.85
2018-05-11T02:32:14.139Z,930.85
2018-05-11T02:32:26.672Z,930.84
2018-05-11T02:32:39.680Z,930.88
2018-05-11T02:32:52.590Z,930.85
2018-05-11T02:33:05.587Z,930.85
2018-05-11T02:33:18.594Z,930.89
2018-05-11T02:33:31.550Z,930.89
2018-05-11T02:33:44.638Z,930.86
2018-05-11T02:33:56.694Z,930.88
2018-05-11T02:34:09.677Z,930.91
2018-05-11T02:34:22.659Z,930.86
2018-05-11T02:34:35.182Z,930.86
2018-05-11T02:34:48.211Z,930.86
2018-05-11T02:35:00.693Z,930.85
2018-05-11T02:35:14.345Z,930.88
2018-05-11T02:35:26.893Z,930.91
2018-05-11T02:35:39.903Z,930.9
2018-05-11T02:35:52.429Z,930.87
2018-05-11T02:36:04.983Z,930.87
2018-05-11T02:36:17.962Z,930.88
2018-05-11T02:36:31.046Z,930.9
2018-05-11T02:36:43.519Z,930.87
2018-05-11T02:36:56.500Z,930.91
2018-05-11T02:37:09.073Z,930.89
2018-05-11T02:37:21.105Z,930.91
2018-05-11T02:37:33.683Z,930.91
2018-05-11T02:37:46.624Z,930.89
2018-05-11T02:37:58.703Z,930.92
2018-05-11T02:38:11.199Z,930.88
2018-05-11T02:38:23.702Z,930.9